createdAt,value
2019-02-04T00:00:46.928Z,18.07
2019-02-04T00:05:51.379Z,17.63
2019-02-04T00:10:55.755Z,16.60
2019-02-04T00:16:00.147Z,18.80
2019-02-04T00:21:05.642Z,19.50
2019-02-04T00:26:09.977Z,17.67
2019-02-04T00:31:14.363Z,16.87
2019-02-04T00:36:18.936Z,14.97
2019-02-04T00:41:23.335Z,14.68
2019-02-04T00:47:19.950Z,17.87
2019-02-04T00:52:24.363Z,17.03
2019-02-04T00:57:28.694Z,16.53
2019-02-04T01:02:33.357Z,16.33
2019-02-04T01:07:37.741Z,16.40
2019-02-04T01:12:42.086Z,14.33
2019-02-04T01:17:46.486Z,13.20
2019-02-04T01:22:51.013Z,14.93
2019-02-04T01:27:55.447Z,14.57
2019-02-04T01:32:59.854Z,13.83
2019-02-04T01:38:04.531Z,12.82
2019-02-04T01:43:08.882Z,13.30
2019-02-04T01:48:13.342Z,12.40
2019-02-04T01:53:17.734Z,12.30
2019-02-04T01:58:22.103Z,12.63
2019-02-04T02:03:26.460Z,13.67
2019-02-04T02:08:30.820Z,11.97
2019-02-04T02:13:35.336Z,11.03
2019-02-04T02:18:39.707Z,15.38
2019-02-04T02:23:44.115Z,13.40
2019-02-04T02:28:48.476Z,13.10
2019-02-04T02:33:52.824Z,14.70
2019-02-04T02:38:57.222Z,12.77
2019-02-04T02:44:01.559Z,14.50
2019-02-04T02:49:06.111Z,13.43
2019-02-04T02:54:10.468Z,12.87
2019-02-04T02:59:14.891Z,14.05
2019-02-04T03:04:19.287Z,11.80
2019-02-04T03:09:23.593Z,13.73
2019-02-04T03:14:27.954Z,13.43
2019-02-04T03:19:32.498Z,13.53
2019-02-04T03:24:37.157Z,13.50
2019-02-04T03:29:41.544Z,11.07
2019-02-04T03:34:45.923Z,12.00
2019-02-04T03:39:50.272Z,11.77
2019-02-04T03:44:55.263Z,13.27
2019-02-04T03:49:59.612Z,13.33
2019-02-04T03:55:04.675Z,15.40
2019-02-04T04:00:22.939Z,14.53
2019-02-04T04:05:27.310Z,15.27
2019-02-04T04:10:31.656Z,15.93
2019-02-04T04:15:36.246Z,13.57
2019-02-04T04:20:40.608Z,15.83
2019-02-04T04:25:45.006Z,15.38
2019-02-04T04:30:49.379Z,15.23
2019-02-04T04:35:53.952Z,16.83
2019-02-04T04:40:58.275Z,14.00
2019-02-04T04:46:02.621Z,15.43
2019-02-04T04:51:07.062Z,13.83
2019-02-04T04:56:11.609Z,15.40
2019-02-04T05:01:16.140Z,14.27
2019-02-04T05:06:20.519Z,16.67
2019-02-04T05:11:24.876Z,14.23
2019-02-04T05:16:29.250Z,13.22
2019-02-04T05:21:33.615Z,12.67
2019-02-04T05:26:37.954Z,15.10
2019-02-04T05:31:42.303Z,14.73
2019-02-04T05:36:46.660Z,14.40
2019-02-04T05:41:51.105Z,13.17
2019-02-04T05:46:55.482Z,14.23
2019-02-04T05:51:59.978Z,14.73
2019-02-04T05:57:04.435Z,19.50
2019-02-04T06:02:12.485Z,14.60
2019-02-04T06:07:18.314Z,13.73
2019-02-04T06:12:22.838Z,11.63
2019-02-04T06:17:27.607Z,13.07
2019-02-04T06:22:32.036Z,15.23
2019-02-04T06:27:36.497Z,12.53
2019-02-04T06:32:40.898Z,11.20
2019-02-04T06:37:46.801Z,12.63
2019-02-04T06:42:51.527Z,10.20
2019-02-04T06:47:55.880Z,11.90
2019-02-04T06:53:00.399Z,15.77
2019-02-04T06:58:04.756Z,11.47
2019-02-04T07:03:09.131Z,12.50
2019-02-04T07:08:13.472Z,12.83
2019-02-04T07:13:17.868Z,15.20
2019-02-04T07:18:22.242Z,16.17
2019-02-04T07:23:26.632Z,13.67
2019-02-04T07:28:31.008Z,15.20
2019-02-04T07:33:36.346Z,14.03
2019-02-04T07:38:40.723Z,12.90
2019-02-04T07:43:45.078Z,11.80
2019-02-04T07:48:49.442Z,11.50
2019-02-04T07:53:54.000Z,16.93
2019-02-04T07:58:58.371Z,10.57
2019-02-04T08:04:02.845Z,13.55
2019-02-04T08:09:08.260Z,14.37
2019-02-04T08:14:12.605Z,14.63
2019-02-04T08:19:16.948Z,10.57
2019-02-04T08:24:21.292Z,12.50
2019-02-04T08:29:25.802Z,10.10
2019-02-04T08:34:30.140Z,13.67
2019-02-04T08:39:34.545Z,13.67
2019-02-04T08:44:38.888Z,13.67
2019-02-04T08:49:43.423Z,14.67
2019-02-04T08:54:47.787Z,11.97
2019-02-04T08:59:52.131Z,12.50
2019-02-04T09:04:56.471Z,12.93
2019-02-04T09:10:00.957Z,12.37
2019-02-04T09:15:16.195Z,14.07
2019-02-04T09:20:20.051Z,14.00
2019-02-04T09:25:27.933Z,11.23
2019-02-04T09:30:32.355Z,11.87
2019-02-04T09:35:36.754Z,12.83
2019-02-04T09:40:43.176Z,13.33
2019-02-04T09:45:47.533Z,13.13
2019-02-04T09:50:52.919Z,12.27
2019-02-04T09:55:57.295Z,17.67
2019-02-04T10:01:04.251Z,11.47
2019-02-04T10:06:07.735Z,13.57
2019-02-04T10:11:12.238Z,15.23
2019-02-04T10:16:16.637Z,9.65
2019-02-04T10:21:21.096Z,11.53
2019-02-04T10:26:25.658Z,15.43
2019-02-04T10:31:30.091Z,12.53
2019-02-04T10:36:34.481Z,13.20
2019-02-04T10:41:38.838Z,17.10
2019-02-04T10:46:43.259Z,16.23
2019-02-04T10:51:47.692Z,13.37
2019-02-04T10:56:52.037Z,14.53
2019-02-04T11:01:56.480Z,15.30
2019-02-04T11:07:00.862Z,12.10
2019-02-04T11:12:05.496Z,15.10
2019-02-04T11:17:10.145Z,10.50
2019-02-04T11:22:14.532Z,12.60
2019-02-04T11:27:18.886Z,13.43
2019-02-04T11:32:23.376Z,11.67
2019-02-04T11:37:27.722Z,10.67
2019-02-04T11:42:32.284Z,11.77
2019-02-04T11:47:36.665Z,10.33
2019-02-04T11:52:41.407Z,12.33
2019-02-04T11:57:45.853Z,11.70
2019-02-04T12:02:50.664Z,10.27
2019-02-04T12:07:55.037Z,9.90
2019-02-04T12:12:59.529Z,10.33
2019-02-04T12:18:05.233Z,12.73
2019-02-04T12:23:09.785Z,10.33
2019-02-04T12:28:14.500Z,8.87
2019-02-04T12:33:18.873Z,7.30
2019-02-04T12:38:23.478Z,10.30
2019-02-04T12:43:27.829Z,7.23
2019-02-04T12:48:32.226Z,10.00
2019-02-04T12:53:36.562Z,7.03
2019-02-04T12:58:40.955Z,5.77
2019-02-04T13:03:45.704Z,8.93
2019-02-04T13:08:50.058Z,7.80
2019-02-04T13:13:54.402Z,4.97
2019-02-04T13:18:58.872Z,8.37
2019-02-04T13:24:03.242Z,6.63
2019-02-04T13:29:07.606Z,9.20
2019-02-04T13:34:12.073Z,6.97
2019-02-04T13:39:16.500Z,4.67
2019-02-04T13:44:20.870Z,5.37
2019-02-04T13:49:25.287Z,4.47
2019-02-04T13:54:29.749Z,5.07
2019-02-04T13:59:34.158Z,6.13
2019-02-04T14:04:40.126Z,3.80
2019-02-04T14:09:44.461Z,3.73
2019-02-04T14:14:49.296Z,3.17
2019-02-04T14:19:53.668Z,7.80
2019-02-04T14:24:58.029Z,5.00
2019-02-04T14:30:02.409Z,3.63
2019-02-04T14:35:08.616Z,8.93
2019-02-04T14:40:18.492Z,3.60
2019-02-04T14:45:31.096Z,4.77
2019-02-04T14:50:58.144Z,4.03
2019-02-04T14:56:18.049Z,4.17
2019-02-04T15:02:00.360Z,7.13
2019-02-04T15:07:30.779Z,4.53
2019-02-04T15:13:01.154Z,6.33
2019-02-04T15:18:20.694Z,3.97
2019-02-04T15:23:54.030Z,6.77
2019-02-04T15:29:01.564Z,4.73
2019-02-04T15:34:33.542Z,6.93
2019-02-04T15:39:43.998Z,4.80
2019-02-04T15:45:06.185Z,7.70
2019-02-04T15:50:29.570Z,4.73
2019-02-04T15:55:33.914Z,4.27
2019-02-04T16:00:38.277Z,3.73
2019-02-04T16:05:42.851Z,6.87
2019-02-04T16:10:47.240Z,5.03
2019-02-04T16:15:51.595Z,5.77
2019-02-04T16:20:55.947Z,6.53
2019-02-04T16:26:00.308Z,6.83
2019-02-04T16:31:04.703Z,4.83
2019-02-04T16:36:09.040Z,4.22
2019-02-04T16:41:13.786Z,6.97
2019-02-04T16:46:18.325Z,6.30
2019-02-04T16:51:22.701Z,5.67
2019-02-04T16:56:27.061Z,5.60
2019-02-04T17:01:31.446Z,6.93
2019-02-04T17:06:35.812Z,5.33
2019-02-04T17:11:40.173Z,8.30
2019-02-04T17:16:44.617Z,10.37
2019-02-04T17:21:49.070Z,8.73
2019-02-04T17:26:53.504Z,8.77
2019-02-04T17:32:00.405Z,8.93
2019-02-04T17:37:04.366Z,8.83
2019-02-04T17:42:09.054Z,10.97
2019-02-04T17:47:13.598Z,7.97
2019-02-04T17:52:17.998Z,11.90
2019-02-04T17:57:22.396Z,10.63
2019-02-04T18:02:26.782Z,12.40
2019-02-04T18:07:31.228Z,10.33
2019-02-04T18:12:35.619Z,13.77
2019-02-04T18:17:40.450Z,13.70
2019-02-04T18:22:45.001Z,12.83
2019-02-04T18:27:49.451Z,15.57
2019-02-04T18:32:54.077Z,13.10
2019-02-04T18:37:58.938Z,15.10
2019-02-04T18:43:03.322Z,12.90
2019-02-04T18:48:07.764Z,17.27
2019-02-04T18:53:12.386Z,15.63
2019-02-04T18:58:18.254Z,15.47
2019-02-04T19:03:24.066Z,13.47
2019-02-04T19:08:29.765Z,16.20
2019-02-04T19:13:36.578Z,13.90
2019-02-04T19:18:44.831Z,14.00
2019-02-04T19:23:50.614Z,16.93
2019-02-04T19:29:06.730Z,14.63
2019-02-04T19:34:12.657Z,13.57
2019-02-04T19:39:18.142Z,16.10
2019-02-04T19:44:24.416Z,15.30
2019-02-04T19:49:29.230Z,14.55
2019-02-04T19:54:33.899Z,15.27
2019-02-04T19:59:39.135Z,11.90
2019-02-04T20:04:44.022Z,14.30
2019-02-04T20:09:51.469Z,14.60
2019-02-04T20:14:56.298Z,17.03
2019-02-04T20:20:02.959Z,13.83
2019-02-04T20:25:25.763Z,17.33
2019-02-04T20:30:45.633Z,15.97
2019-02-04T20:35:46.145Z,15.17
2019-02-04T20:40:50.790Z,16.57
2019-02-04T20:45:55.160Z,15.60
2019-02-04T20:51:00.325Z,14.77
2019-02-04T20:56:05.262Z,15.47
2019-02-04T21:01:09.684Z,15.50
2019-02-04T21:06:14.193Z,15.07
2019-02-04T21:11:18.557Z,15.70
2019-02-04T21:16:22.962Z,16.63
2019-02-04T21:21:27.526Z,15.53
2019-02-04T21:26:31.889Z,13.13
2019-02-04T21:31:36.606Z,14.87
2019-02-04T21:36:41.200Z,12.67
2019-02-04T21:41:45.655Z,15.63
2019-02-04T21:46:50.027Z,14.53
2019-02-04T21:51:54.466Z,16.73
2019-02-04T21:56:58.838Z,15.37
2019-02-04T22:02:03.228Z,14.47
2019-02-04T22:07:09.829Z,14.40
2019-02-04T22:12:14.498Z,16.63
2019-02-04T22:17:18.864Z,14.20
2019-02-04T22:22:25.213Z,13.80
2019-02-04T22:27:29.593Z,13.57
2019-02-04T22:32:33.946Z,13.87
2019-02-04T22:37:38.374Z,13.37
2019-02-04T22:42:42.777Z,12.63
2019-02-04T22:47:47.150Z,16.23
2019-02-04T22:52:52.087Z,14.77
2019-02-04T22:57:56.654Z,11.70
2019-02-04T23:03:01.188Z,12.67
2019-02-04T23:08:06.276Z,11.93
2019-02-04T23:13:11.814Z,11.28
2019-02-04T23:18:16.273Z,12.23
2019-02-04T23:23:20.640Z,11.43
2019-02-04T23:28:25.022Z,14.73
2019-02-04T23:33:34.074Z,10.73
2019-02-04T23:38:35.491Z,12.87
2019-02-04T23:43:40.244Z,11.17
2019-02-04T23:48:44.627Z,10.60
2019-02-04T23:53:50.085Z,10.70
2019-02-04T23:58:54.430Z,11.60
